sensor_id;sensor_type;location;lat;lon;timestamp;P1;durP1;ratioP1;P2;durP2;ratioP2
66189;SDS011;52992;52.084;5.412;2022-08-14T00:01:35;4.97;;;4.57;;
66189;SDS011;52992;52.084;5.412;2022-08-14T00:04:02;5.13;;;4.73;;
66189;SDS011;52992;52.084;5.412;2022-08-14T00:06:49;5.97;;;4.60;;
66189;SDS011;52992;52.084;5.412;2022-08-14T00:09:17;5.67;;;4.90;;
66189;SDS011;52992;52.084;5.412;2022-08-14T00:11:45;5.93;;;5.37;;
66189;SDS011;52992;52.084;5.412;2022-08-14T00:14:12;5.63;;;4.97;;
66189;SDS011;52992;52.084;5.412;2022-08-14T00:16:42;6.43;;;4.70;;
66189;SDS011;52992;52.084;5.412;2022-08-14T00:19:10;6.47;;;5.43;;
66189;SDS011;52992;52.084;5.412;2022-08-14T00:21:50;6.17;;;5.40;;
66189;SDS011;52992;52.084;5.412;2022-08-14T00:24:18;6.03;;;5.03;;
66189;SDS011;52992;52.084;5.412;2022-08-14T00:26:55;5.67;;;5.13;;
66189;SDS011;52992;52.084;5.412;2022-08-14T00:29:28;5.90;;;5.37;;
66189;SDS011;52992;52.084;5.412;2022-08-14T00:32:06;5.83;;;5.23;;
66189;SDS011;52992;52.084;5.412;2022-08-14T00:34:53;5.67;;;5.17;;
66189;SDS011;52992;52.084;5.412;2022-08-14T00:37:21;5.80;;;5.30;;
66189;SDS011;52992;52.084;5.412;2022-08-14T00:39:48;6.03;;;5.53;;
66189;SDS011;52992;52.084;5.412;2022-08-14T00:42:20;6.20;;;5.03;;
66189;SDS011;52992;52.084;5.412;2022-08-14T00:45:09;5.70;;;5.07;;
66189;SDS011;52992;52.084;5.412;2022-08-14T00:47:43;5.80;;;5.20;;
66189;SDS011;52992;52.084;5.412;2022-08-14T00:50:12;5.70;;;5.20;;
66189;SDS011;52992;52.084;5.412;2022-08-14T00:52:48;6.97;;;5.50;;
66189;SDS011;52992;52.084;5.412;2022-08-14T00:55:17;5.10;;;4.60;;
66189;SDS011;52992;52.084;5.412;2022-08-14T00:57:46;5.20;;;4.70;;
66189;SDS011;52992;52.084;5.412;2022-08-14T01:00:38;7.33;;;5.63;;
66189;SDS011;52992;52.084;5.412;2022-08-14T01:03:17;5.93;;;5.33;;
66189;SDS011;52992;52.084;5.412;2022-08-14T01:05:47;5.70;;;5.17;;
66189;SDS011;52992;52.084;5.412;2022-08-14T01:08:27;7.80;;;5.67;;
66189;SDS011;52992;52.084;5.412;2022-08-14T01:11:15;6.67;;;6.07;;
66189;SDS011;52992;52.084;5.412;2022-08-14T01:13:45;6.80;;;6.07;;
66189;SDS011;52992;52.084;5.412;2022-08-14T01:16:21;6.03;;;5.53;;
66189;SDS011;52992;52.084;5.412;2022-08-14T01:18:55;6.70;;;6.00;;
66189;SDS011;52992;52.084;5.412;2022-08-14T01:21:41;6.00;;;5.40;;
66189;SDS011;52992;52.084;5.412;2022-08-14T01:24:12;6.63;;;5.93;;
66189;SDS011;52992;52.084;5.412;2022-08-14T01:26:49;7.20;;;5.70;;
66189;SDS011;52992;52.084;5.412;2022-08-14T01:29:18;7.77;;;5.97;;
66189;SDS011;52992;52.084;5.412;2022-08-14T01:32:06;7.30;;;6.30;;
66189;SDS011;52992;52.084;5.412;2022-08-14T01:34:35;6.27;;;5.50;;
66189;SDS011;52992;52.084;5.412;2022-08-14T01:37:22;8.27;;;5.90;;
66189;SDS011;52992;52.084;5.412;2022-08-14T01:39:51;6.80;;;5.53;;
66189;SDS011;52992;52.084;5.412;2022-08-14T01:42:19;7.17;;;5.40;;
66189;SDS011;52992;52.084;5.412;2022-08-14T01:45:02;6.27;;;5.67;;
66189;SDS011;52992;52.084;5.412;2022-08-14T01:47:36;8.17;;;6.20;;
66189;SDS011;52992;52.084;5.412;2022-08-14T01:50:05;7.83;;;5.97;;
66189;SDS011;52992;52.084;5.412;2022-08-14T01:52:35;7.70;;;5.93;;
66189;SDS011;52992;52.084;5.412;2022-08-14T01:55:24;7.90;;;6.10;;
66189;SDS011;52992;52.084;5.412;2022-08-14T01:57:57;6.77;;;6.17;;
66189;SDS011;52992;52.084;5.412;2022-08-14T02:00:45;7.90;;;6.77;;
66189;SDS011;52992;52.084;5.412;2022-08-14T02:03:19;7.03;;;5.70;;
66189;SDS011;52992;52.084;5.412;2022-08-14T02:05:47;6.60;;;6.00;;
66189;SDS011;52992;52.084;5.412;2022-08-14T02:08:14;7.60;;;6.90;;
66189;SDS011;52992;52.084;5.412;2022-08-14T02:10:47;7.30;;;6.60;;
66189;SDS011;52992;52.084;5.412;2022-08-14T02:13:34;7.03;;;6.23;;
66189;SDS011;52992;52.084;5.412;2022-08-14T02:16:02;7.37;;;6.40;;
66189;SDS011;52992;52.084;5.412;2022-08-14T02:18:47;8.10;;;6.07;;
66189;SDS011;52992;52.084;5.412;2022-08-14T02:21:14;7.90;;;7.10;;
66189;SDS011;52992;52.084;5.412;2022-08-14T02:23:48;7.73;;;6.93;;
66189;SDS011;52992;52.084;5.412;2022-08-14T02:26:23;7.33;;;6.63;;
66189;SDS011;52992;52.084;5.412;2022-08-14T02:28:57;7.50;;;6.80;;
66189;SDS011;52992;52.084;5.412;2022-08-14T02:31:30;8.00;;;6.97;;
66189;SDS011;52992;52.084;5.412;2022-08-14T02:34:18;7.77;;;6.97;;
66189;SDS011;52992;52.084;5.412;2022-08-14T02:36:53;7.73;;;6.93;;
66189;SDS011;52992;52.084;5.412;2022-08-14T02:39:32;9.80;;;7.30;;
66189;SDS011;52992;52.084;5.412;2022-08-14T02:42:05;10.70;;;7.10;;
66189;SDS011;52992;52.084;5.412;2022-08-14T02:44:39;8.60;;;7.37;;
66189;SDS011;52992;52.084;5.412;2022-08-14T02:47:08;8.27;;;7.20;;
66189;SDS011;52992;52.084;5.412;2022-08-14T02:49:45;8.00;;;6.57;;
66189;SDS011;52992;52.084;5.412;2022-08-14T02:52:22;10.37;;;8.07;;
66189;SDS011;52992;52.084;5.412;2022-08-14T02:55:11;13.03;;;8.17;;
66189;SDS011;52992;52.084;5.412;2022-08-14T02:57:46;9.93;;;7.47;;
66189;SDS011;52992;52.084;5.412;2022-08-14T03:00:23;8.80;;;7.27;;
66189;SDS011;52992;52.084;5.412;2022-08-14T03:02:52;8.83;;;7.90;;
66189;SDS011;52992;52.084;5.412;2022-08-14T03:05:25;8.43;;;7.53;;
66189;SDS011;52992;52.084;5.412;2022-08-14T03:08:04;8.60;;;7.43;;
66189;SDS011;52992;52.084;5.412;2022-08-14T03:10:41;8.37;;;7.23;;
66189;SDS011;52992;52.084;5.412;2022-08-14T03:13:14;9.20;;;8.00;;
66189;SDS011;52992;52.084;5.412;2022-08-14T03:15:47;7.87;;;7.07;;
66189;SDS011;52992;52.084;5.412;2022-08-14T03:18:22;9.23;;;7.80;;
66189;SDS011;52992;52.084;5.412;2022-08-14T03:21:02;9.03;;;8.07;;
66189;SDS011;52992;52.084;5.412;2022-08-14T03:23:30;8.90;;;8.00;;
66189;SDS011;52992;52.084;5.412;2022-08-14T03:26:04;8.03;;;7.23;;
66189;SDS011;52992;52.084;5.412;2022-08-14T03:28:44;9.33;;;8.17;;
66189;SDS011;52992;52.084;5.412;2022-08-14T03:31:13;10.30;;;8.10;;
66189;SDS011;52992;52.084;5.412;2022-08-14T03:33:40;8.90;;;7.90;;
66189;SDS011;52992;52.084;5.412;2022-08-14T03:36:12;8.13;;;7.23;;
66189;SDS011;52992;52.084;5.412;2022-08-14T03:39:03;7.57;;;6.80;;
66189;SDS011;52992;52.084;5.412;2022-08-14T03:41:47;8.77;;;7.40;;
66189;SDS011;52992;52.084;5.412;2022-08-14T03:44:18;9.50;;;7.67;;
66189;SDS011;52992;52.084;5.412;2022-08-14T03:47:06;9.07;;;8.17;;
66189;SDS011;52992;52.084;5.412;2022-08-14T03:49:33;9.30;;;8.30;;
66189;SDS011;52992;52.084;5.412;2022-08-14T03:52:07;10.53;;;8.37;;
66189;SDS011;52992;52.084;5.412;2022-08-14T03:54:54;9.23;;;7.90;;
66189;SDS011;52992;52.084;5.412;2022-08-14T03:57:21;12.60;;;9.37;;
66189;SDS011;52992;52.084;5.412;2022-08-14T03:59:49;10.83;;;9.13;;
66189;SDS011;52992;52.084;5.412;2022-08-14T04:02:16;9.67;;;8.67;;
66189;SDS011;52992;52.084;5.412;2022-08-14T04:05:09;9.40;;;8.50;;
66189;SDS011;52992;52.084;5.412;2022-08-14T04:07:38;9.50;;;8.50;;
66189;SDS011;52992;52.084;5.412;2022-08-14T04:10:26;8.60;;;7.70;;
66189;SDS011;52992;52.084;5.412;2022-08-14T04:12:58;9.10;;;8.20;;
66189;SDS011;52992;52.084;5.412;2022-08-14T04:15:32;9.20;;;7.40;;
66189;SDS011;52992;52.084;5.412;2022-08-14T04:18:19;10.77;;;8.87;;
66189;SDS011;52992;52.084;5.412;2022-08-14T04:20:46;11.10;;;8.20;;
66189;SDS011;52992;52.084;5.412;2022-08-14T04:23:21;9.97;;;8.50;;
66189;SDS011;52992;52.084;5.412;2022-08-14T04:25:49;9.83;;;8.30;;
66189;SDS011;52992;52.084;5.412;2022-08-14T04:28:19;10.00;;;8.53;;
66189;SDS011;52992;52.084;5.412;2022-08-14T04:31:06;10.07;;;8.60;;
66189;SDS011;52992;52.084;5.412;2022-08-14T04:33:33;10.20;;;8.43;;
66189;SDS011;52992;52.084;5.412;2022-08-14T04:36:01;10.23;;;8.63;;
66189;SDS011;52992;52.084;5.412;2022-08-14T04:38:29;9.27;;;8.20;;
66189;SDS011;52992;52.084;5.412;2022-08-14T04:41:15;10.70;;;8.17;;
66189;SDS011;52992;52.084;5.412;2022-08-14T04:44:02;13.97;;;8.80;;
66189;SDS011;52992;52.084;5.412;2022-08-14T04:46:32;11.67;;;8.60;;
66189;SDS011;52992;52.084;5.412;2022-08-14T04:49:20;11.17;;;9.10;;
66189;SDS011;52992;52.084;5.412;2022-08-14T04:51:48;10.57;;;8.73;;
66189;SDS011;52992;52.084;5.412;2022-08-14T04:54:21;9.47;;;8.50;;
66189;SDS011;52992;52.084;5.412;2022-08-14T04:56:55;12.10;;;8.47;;
66189;SDS011;52992;52.084;5.412;2022-08-14T04:59:23;12.43;;;9.03;;
66189;SDS011;52992;52.084;5.412;2022-08-14T05:01:50;10.30;;;9.20;;
66189;SDS011;52992;52.084;5.412;2022-08-14T05:04:22;9.40;;;8.40;;
66189;SDS011;52992;52.084;5.412;2022-08-14T05:06:51;8.90;;;8.00;;
66189;SDS011;52992;52.084;5.412;2022-08-14T05:09:23;9.70;;;8.63;;
66189;SDS011;52992;52.084;5.412;2022-08-14T05:11:54;9.83;;;8.83;;
66189;SDS011;52992;52.084;5.412;2022-08-14T05:14:41;10.60;;;8.80;;
66189;SDS011;52992;52.084;5.412;2022-08-14T05:17:20;9.67;;;8.67;;
66189;SDS011;52992;52.084;5.412;2022-08-14T05:19:57;9.73;;;8.73;;
66189;SDS011;52992;52.084;5.412;2022-08-14T05:22:46;10.33;;;8.77;;
66189;SDS011;52992;52.084;5.412;2022-08-14T05:25:21;9.90;;;8.90;;
66189;SDS011;52992;52.084;5.412;2022-08-14T05:27:48;10.37;;;9.27;;
66189;SDS011;52992;52.084;5.412;2022-08-14T05:30:20;23.03;;;9.93;;
66189;SDS011;52992;52.084;5.412;2022-08-14T05:32:46;9.60;;;8.60;;
66189;SDS011;52992;52.084;5.412;2022-08-14T05:35:13;11.10;;;9.43;;
66189;SDS011;52992;52.084;5.412;2022-08-14T05:37:40;10.00;;;8.83;;
66189;SDS011;52992;52.084;5.412;2022-08-14T05:40:11;9.83;;;8.83;;
66189;SDS011;52992;52.084;5.412;2022-08-14T05:42:38;13.60;;;10.33;;
66189;SDS011;52992;52.084;5.412;2022-08-14T05:45:05;12.17;;;9.13;;
66189;SDS011;52992;52.084;5.412;2022-08-14T05:47:39;12.20;;;9.77;;
66189;SDS011;52992;52.084;5.412;2022-08-14T05:50:12;12.40;;;9.63;;
66189;SDS011;52992;52.084;5.412;2022-08-14T05:52:44;11.43;;;10.20;;
66189;SDS011;52992;52.084;5.412;2022-08-14T05:55:13;13.63;;;11.37;;
66189;SDS011;52992;52.084;5.412;2022-08-14T05:57:46;13.60;;;10.27;;
66189;SDS011;52992;52.084;5.412;2022-08-14T06:00:15;11.83;;;10.00;;
66189;SDS011;52992;52.084;5.412;2022-08-14T06:02:54;14.20;;;9.90;;
66189;SDS011;52992;52.084;5.412;2022-08-14T06:05:23;11.43;;;9.47;;
66189;SDS011;52992;52.084;5.412;2022-08-14T06:07:54;13.53;;;10.83;;
66189;SDS011;52992;52.084;5.412;2022-08-14T06:10:22;16.93;;;10.70;;
66189;SDS011;52992;52.084;5.412;2022-08-14T06:12:50;13.10;;;10.70;;
66189;SDS011;52992;52.084;5.412;2022-08-14T06:15:22;12.30;;;9.43;;
66189;SDS011;52992;52.084;5.412;2022-08-14T06:17:55;14.87;;;11.73;;
66189;SDS011;52992;52.084;5.412;2022-08-14T06:20:25;14.30;;;10.20;;
66189;SDS011;52992;52.084;5.412;2022-08-14T06:22:53;18.47;;;11.40;;
66189;SDS011;52992;52.084;5.412;2022-08-14T06:25:21;17.37;;;11.57;;
66189;SDS011;52992;52.084;5.412;2022-08-14T06:27:50;14.73;;;11.40;;
66189;SDS011;52992;52.084;5.412;2022-08-14T06:30:18;13.50;;;10.60;;
66189;SDS011;52992;52.084;5.412;2022-08-14T06:32:46;17.70;;;12.20;;
66189;SDS011;52992;52.084;5.412;2022-08-14T06:35:18;17.60;;;12.47;;
66189;SDS011;52992;52.084;5.412;2022-08-14T06:37:52;15.67;;;12.23;;
66189;SDS011;52992;52.084;5.412;2022-08-14T06:43:12;16.73;;;11.43;;
66189;SDS011;52992;52.084;5.412;2022-08-14T06:45:44;14.93;;;11.40;;
66189;SDS011;52992;52.084;5.412;2022-08-14T06:48:20;15.03;;;10.67;;
66189;SDS011;52992;52.084;5.412;2022-08-14T06:50:51;12.83;;;10.40;;
66189;SDS011;52992;52.084;5.412;2022-08-14T06:53:19;14.57;;;10.67;;
66189;SDS011;52992;52.084;5.412;2022-08-14T06:55:53;15.73;;;11.97;;
66189;SDS011;52992;52.084;5.412;2022-08-14T06:58:26;13.23;;;10.30;;
66189;SDS011;52992;52.084;5.412;2022-08-14T07:00:55;12.33;;;10.90;;
66189;SDS011;52992;52.084;5.412;2022-08-14T07:03:41;13.30;;;10.20;;
66189;SDS011;52992;52.084;5.412;2022-08-14T07:06:50;12.80;;;10.47;;
66189;SDS011;52992;52.084;5.412;2022-08-14T07:09:25;12.77;;;10.40;;
66189;SDS011;52992;52.084;5.412;2022-08-14T07:12:09;11.70;;;10.07;;
66189;SDS011;52992;52.084;5.412;2022-08-14T07:14:56;12.90;;;10.97;;
66189;SDS011;52992;52.084;5.412;2022-08-14T07:17:26;13.40;;;11.33;;
66189;SDS011;52992;52.084;5.412;2022-08-14T07:19:57;11.50;;;10.30;;
66189;SDS011;52992;52.084;5.412;2022-08-14T07:22:24;11.83;;;10.37;;
66189;SDS011;52992;52.084;5.412;2022-08-14T07:25:11;11.43;;;10.23;;
66189;SDS011;52992;52.084;5.412;2022-08-14T07:27:38;13.73;;;10.27;;
66189;SDS011;52992;52.084;5.412;2022-08-14T07:30:08;13.17;;;9.80;;
66189;SDS011;52992;52.084;5.412;2022-08-14T07:32:55;12.83;;;10.53;;
66189;SDS011;52992;52.084;5.412;2022-08-14T07:35:22;11.53;;;9.53;;
66189;SDS011;52992;52.084;5.412;2022-08-14T07:37:55;12.03;;;9.57;;
66189;SDS011;52992;52.084;5.412;2022-08-14T07:40:22;13.00;;;9.13;;
66189;SDS011;52992;52.084;5.412;2022-08-14T07:42:55;10.53;;;8.10;;
66189;SDS011;52992;52.084;5.412;2022-08-14T07:45:39;10.23;;;9.03;;
66189;SDS011;52992;52.084;5.412;2022-08-14T07:48:07;11.80;;;9.37;;
66189;SDS011;52992;52.084;5.412;2022-08-14T07:50:40;9.27;;;7.63;;
66189;SDS011;52992;52.084;5.412;2022-08-14T07:53:11;9.77;;;8.37;;
66189;SDS011;52992;52.084;5.412;2022-08-14T07:55:44;9.20;;;8.23;;
66189;SDS011;52992;52.084;5.412;2022-08-14T07:58:25;9.00;;;7.90;;
66189;SDS011;52992;52.084;5.412;2022-08-14T08:01:04;8.73;;;7.83;;
66189;SDS011;52992;52.084;5.412;2022-08-14T08:03:34;11.67;;;8.83;;
66189;SDS011;52992;52.084;5.412;2022-08-14T08:06:03;8.43;;;7.63;;
66189;SDS011;52992;52.084;5.412;2022-08-14T08:08:42;9.53;;;8.00;;
66189;SDS011;52992;52.084;5.412;2022-08-14T08:11:26;9.40;;;7.53;;
66189;SDS011;52992;52.084;5.412;2022-08-14T08:14:03;8.13;;;7.17;;
66189;SDS011;52992;52.084;5.412;2022-08-14T08:16:41;10.73;;;7.43;;
66189;SDS011;52992;52.084;5.412;2022-08-14T08:19:11;9.13;;;7.67;;
66189;SDS011;52992;52.084;5.412;2022-08-14T08:21:39;8.00;;;7.20;;
66189;SDS011;52992;52.084;5.412;2022-08-14T08:24:10;10.57;;;7.23;;
66189;SDS011;52992;52.084;5.412;2022-08-14T08:26:45;7.13;;;6.43;;
66189;SDS011;52992;52.084;5.412;2022-08-14T08:29:17;7.97;;;6.93;;
66189;SDS011;52992;52.084;5.412;2022-08-14T08:31:54;7.57;;;6.87;;
66189;SDS011;52992;52.084;5.412;2022-08-14T08:34:41;10.30;;;6.93;;
66189;SDS011;52992;52.084;5.412;2022-08-14T08:37:12;9.50;;;6.97;;
66189;SDS011;52992;52.084;5.412;2022-08-14T08:39:44;7.67;;;6.80;;
66189;SDS011;52992;52.084;5.412;2022-08-14T08:42:29;8.53;;;7.20;;
66189;SDS011;52992;52.084;5.412;2022-08-14T08:45:06;7.80;;;7.07;;
66189;SDS011;52992;52.084;5.412;2022-08-14T08:47:38;9.80;;;7.30;;
66189;SDS011;52992;52.084;5.412;2022-08-14T08:50:14;8.77;;;7.13;;
66189;SDS011;52992;52.084;5.412;2022-08-14T08:52:57;9.50;;;7.90;;
66189;SDS011;52992;52.084;5.412;2022-08-14T08:55:28;8.00;;;7.03;;
66189;SDS011;52992;52.084;5.412;2022-08-14T08:58:00;8.10;;;7.00;;
66189;SDS011;52992;52.084;5.412;2022-08-14T09:00:41;9.63;;;7.33;;
66189;SDS011;52992;52.084;5.412;2022-08-14T09:03:16;9.47;;;7.27;;
66189;SDS011;52992;52.084;5.412;2022-08-14T09:05:54;7.90;;;6.57;;
66189;SDS011;52992;52.084;5.412;2022-08-14T09:08:24;9.53;;;6.67;;
66189;SDS011;52992;52.084;5.412;2022-08-14T09:11:02;7.60;;;6.53;;
66189;SDS011;52992;52.084;5.412;2022-08-14T09:13:47;9.03;;;7.10;;
66189;SDS011;52992;52.084;5.412;2022-08-14T09:16:17;7.97;;;6.83;;
66189;SDS011;52992;52.084;5.412;2022-08-14T09:18:50;7.60;;;6.87;;
66189;SDS011;52992;52.084;5.412;2022-08-14T09:21:18;7.40;;;6.47;;
66189;SDS011;52992;52.084;5.412;2022-08-14T09:23:49;6.77;;;6.13;;
66189;SDS011;52992;52.084;5.412;2022-08-14T09:26:41;6.78;;;6.00;;
66189;SDS011;52992;52.084;5.412;2022-08-14T09:29:15;8.60;;;6.25;;
66189;SDS011;52992;52.084;5.412;2022-08-14T09:31:50;7.28;;;6.57;;
66189;SDS011;52992;52.084;5.412;2022-08-14T09:34:34;8.20;;;6.35;;
66189;SDS011;52992;52.084;5.412;2022-08-14T09:43:18;7.82;;;6.72;;
66189;SDS011;52992;52.084;5.412;2022-08-14T09:46:08;7.25;;;6.45;;
66189;SDS011;52992;52.084;5.412;2022-08-14T09:48:35;6.57;;;5.97;;
66189;SDS011;52992;52.084;5.412;2022-08-14T09:51:03;6.03;;;5.38;;
66189;SDS011;52992;52.084;5.412;2022-08-14T09:53:42;7.38;;;6.10;;
66189;SDS011;52992;52.084;5.412;2022-08-14T09:56:43;6.50;;;5.60;;
66189;SDS011;52992;52.084;5.412;2022-08-14T09:59:22;7.32;;;5.70;;
66189;SDS011;52992;52.084;5.412;2022-08-14T10:01:50;6.32;;;5.72;;
66189;SDS011;52992;52.084;5.412;2022-08-14T10:04:22;6.60;;;6.00;;
66189;SDS011;52992;52.084;5.412;2022-08-14T10:07:03;6.63;;;6.03;;
66189;SDS011;52992;52.084;5.412;2022-08-14T10:09:44;6.13;;;5.63;;
66189;SDS011;52992;52.084;5.412;2022-08-14T10:12:38;6.38;;;5.53;;
66189;SDS011;52992;52.084;5.412;2022-08-14T10:15:22;6.53;;;5.93;;
66189;SDS011;52992;52.084;5.412;2022-08-14T10:18:02;6.65;;;5.97;;
66189;SDS011;52992;52.084;5.412;2022-08-14T10:20:35;6.32;;;5.72;;
66189;SDS011;52992;52.084;5.412;2022-08-14T10:23:14;6.25;;;5.57;;
66189;SDS011;52992;52.084;5.412;2022-08-14T10:25:44;6.38;;;5.82;;
66189;SDS011;52992;52.084;5.412;2022-08-14T10:28:20;6.50;;;5.88;;
66189;SDS011;52992;52.084;5.412;2022-08-14T10:33:59;5.80;;;5.25;;
66189;SDS011;52992;52.084;5.412;2022-08-14T10:36:42;5.88;;;5.38;;
66189;SDS011;52992;52.084;5.412;2022-08-14T10:39:16;7.47;;;5.88;;
66189;SDS011;52992;52.084;5.412;2022-08-14T10:41:46;5.93;;;5.22;;
66189;SDS011;52992;52.084;5.412;2022-08-14T10:44:22;6.47;;;5.75;;
66189;SDS011;52992;52.084;5.412;2022-08-14T10:46:55;5.80;;;5.30;;
66189;SDS011;52992;52.084;5.412;2022-08-14T10:49:54;5.78;;;5.25;;
66189;SDS011;52992;52.084;5.412;2022-08-14T10:52:29;5.90;;;5.40;;
66189;SDS011;52992;52.084;5.412;2022-08-14T10:55:11;5.55;;;5.05;;
66189;SDS011;52992;52.084;5.412;2022-08-14T10:57:52;5.82;;;5.20;;
66189;SDS011;52992;52.084;5.412;2022-08-14T11:00:23;5.43;;;4.78;;
66189;SDS011;52992;52.084;5.412;2022-08-14T11:03:02;5.03;;;4.63;;
66189;SDS011;52992;52.084;5.412;2022-08-14T11:05:51;5.60;;;5.00;;
66189;SDS011;52992;52.084;5.412;2022-08-14T11:08:30;4.97;;;4.57;;
66189;SDS011;52992;52.084;5.412;2022-08-14T11:10:59;5.00;;;4.43;;
66189;SDS011;52992;52.084;5.412;2022-08-14T11:13:29;5.22;;;4.80;;
66189;SDS011;52992;52.084;5.412;2022-08-14T11:15:57;6.40;;;4.90;;
66189;SDS011;52992;52.084;5.412;2022-08-14T11:18:26;5.15;;;4.75;;
66189;SDS011;52992;52.084;5.412;2022-08-14T11:21:01;5.00;;;4.45;;
66189;SDS011;52992;52.084;5.412;2022-08-14T11:23:34;5.03;;;4.63;;
66189;SDS011;52992;52.084;5.412;2022-08-14T11:26:07;4.70;;;4.28;;
66189;SDS011;52992;52.084;5.412;2022-08-14T11:28:39;4.15;;;3.60;;
66189;SDS011;52992;52.084;5.412;2022-08-14T11:31:14;5.40;;;4.95;;
66189;SDS011;52992;52.084;5.412;2022-08-14T11:33:48;4.75;;;4.43;;
66189;SDS011;52992;52.084;5.412;2022-08-14T11:36:20;4.70;;;4.10;;
66189;SDS011;52992;52.084;5.412;2022-08-14T11:39:20;4.45;;;4.05;;
66189;SDS011;52992;52.084;5.412;2022-08-14T11:42:05;4.20;;;3.90;;
66189;SDS011;52992;52.084;5.412;2022-08-14T11:44:55;4.60;;;4.20;;
66189;SDS011;52992;52.084;5.412;2022-08-14T11:47:26;6.25;;;4.53;;
66189;SDS011;52992;52.084;5.412;2022-08-14T11:50:16;4.85;;;4.55;;
66189;SDS011;52992;52.084;5.412;2022-08-14T11:53:02;4.40;;;4.00;;
66189;SDS011;52992;52.084;5.412;2022-08-14T11:55:36;4.95;;;4.55;;
66189;SDS011;52992;52.084;5.412;2022-08-14T11:58:08;4.43;;;4.03;;
66189;SDS011;52992;52.084;5.412;2022-08-14T12:03:14;5.07;;;4.60;;
66189;SDS011;52992;52.084;5.412;2022-08-14T12:05:52;4.72;;;4.32;;
66189;SDS011;52992;52.084;5.412;2022-08-14T12:08:34;4.72;;;4.32;;
66189;SDS011;52992;52.084;5.412;2022-08-14T12:11:04;4.57;;;4.22;;
66189;SDS011;52992;52.084;5.412;2022-08-14T12:13:35;6.22;;;4.22;;
66189;SDS011;52992;52.084;5.412;2022-08-14T12:16:06;4.50;;;4.10;;
66189;SDS011;52992;52.084;5.412;2022-08-14T12:18:47;4.88;;;4.32;;
66189;SDS011;52992;52.084;5.412;2022-08-14T12:21:20;4.32;;;4.03;;
66189;SDS011;52992;52.084;5.412;2022-08-14T12:26:34;5.40;;;3.97;;
66189;SDS011;52992;52.084;5.412;2022-08-14T12:29:10;5.07;;;3.97;;
66189;SDS011;52992;52.084;5.412;2022-08-14T12:31:41;3.95;;;3.65;;
66189;SDS011;52992;52.084;5.412;2022-08-14T12:34:16;4.53;;;3.83;;
66189;SDS011;52992;52.084;5.412;2022-08-14T12:36:59;5.07;;;4.68;;
66189;SDS011;52992;52.084;5.412;2022-08-14T12:39:29;4.53;;;3.85;;
66189;SDS011;52992;52.084;5.412;2022-08-14T12:42:05;4.22;;;3.92;;
66189;SDS011;52992;52.084;5.412;2022-08-14T12:44:36;4.68;;;4.25;;
66189;SDS011;52992;52.084;5.412;2022-08-14T12:47:10;4.50;;;4.18;;
66189;SDS011;52992;52.084;5.412;2022-08-14T12:49:48;4.70;;;4.30;;
66189;SDS011;52992;52.084;5.412;2022-08-14T12:52:30;4.97;;;4.40;;
66189;SDS011;52992;52.084;5.412;2022-08-14T12:55:16;4.47;;;4.10;;
66189;SDS011;52992;52.084;5.412;2022-08-14T12:57:44;5.13;;;4.38;;
66189;SDS011;52992;52.084;5.412;2022-08-14T13:00:16;6.13;;;4.38;;
66189;SDS011;52992;52.084;5.412;2022-08-14T13:02:49;4.40;;;4.00;;
66189;SDS011;52992;52.084;5.412;2022-08-14T13:05:27;4.57;;;4.18;;
66189;SDS011;52992;52.084;5.412;2022-08-14T13:07:56;4.28;;;3.92;;
66189;SDS011;52992;52.084;5.412;2022-08-14T13:10:26;4.20;;;3.83;;
66189;SDS011;52992;52.084;5.412;2022-08-14T13:13:14;4.38;;;4.07;;
66189;SDS011;52992;52.084;5.412;2022-08-14T13:15:43;4.97;;;4.00;;
66189;SDS011;52992;52.084;5.412;2022-08-14T13:18:13;4.78;;;4.38;;
66189;SDS011;52992;52.084;5.412;2022-08-14T13:20:41;3.53;;;3.30;;
66189;SDS011;52992;52.084;5.412;2022-08-14T13:23:23;4.57;;;4.15;;
66189;SDS011;52992;52.084;5.412;2022-08-14T13:25:58;4.20;;;3.90;;
66189;SDS011;52992;52.084;5.412;2022-08-14T13:28:26;4.10;;;3.80;;
66189;SDS011;52992;52.084;5.412;2022-08-14T13:31:00;4.65;;;4.25;;
66189;SDS011;52992;52.084;5.412;2022-08-14T13:33:36;4.50;;;4.03;;
66189;SDS011;52992;52.084;5.412;2022-08-14T13:36:06;4.80;;;4.40;;
66189;SDS011;52992;52.084;5.412;2022-08-14T13:38:34;5.63;;;4.20;;
66189;SDS011;52992;52.084;5.412;2022-08-14T13:41:02;4.55;;;4.20;;
66189;SDS011;52992;52.084;5.412;2022-08-14T13:43:31;4.50;;;4.20;;
66189;SDS011;52992;52.084;5.412;2022-08-14T13:46:14;4.55;;;4.20;;
66189;SDS011;52992;52.084;5.412;2022-08-14T13:48:42;4.80;;;4.40;;
66189;SDS011;52992;52.084;5.412;2022-08-14T13:51:10;4.03;;;3.72;;
66189;SDS011;52992;52.084;5.412;2022-08-14T13:53:43;4.45;;;4.15;;
66189;SDS011;52992;52.084;5.412;2022-08-14T13:56:34;4.47;;;4.07;;
66189;SDS011;52992;52.084;5.412;2022-08-14T13:59:04;5.88;;;4.15;;
66189;SDS011;52992;52.084;5.412;2022-08-14T14:01:31;5.25;;;4.22;;
66189;SDS011;52992;52.084;5.412;2022-08-14T14:04:10;5.15;;;4.55;;
66189;SDS011;52992;52.084;5.412;2022-08-14T14:06:46;4.68;;;4.28;;
66189;SDS011;52992;52.084;5.412;2022-08-14T14:09:15;4.47;;;4.07;;
66189;SDS011;52992;52.084;5.412;2022-08-14T14:12:09;5.10;;;4.28;;
66189;SDS011;52992;52.084;5.412;2022-08-14T14:14:58;5.30;;;4.78;;
66189;SDS011;52992;52.084;5.412;2022-08-14T14:17:30;4.93;;;4.30;;
66189;SDS011;52992;52.084;5.412;2022-08-14T14:19:57;4.75;;;4.40;;
66189;SDS011;52992;52.084;5.412;2022-08-14T14:22:25;4.80;;;4.30;;
66189;SDS011;52992;52.084;5.412;2022-08-14T14:25:13;4.60;;;4.30;;
66189;SDS011;52992;52.084;5.412;2022-08-14T14:27:47;4.97;;;4.57;;
66189;SDS011;52992;52.084;5.412;2022-08-14T14:30:19;5.15;;;4.75;;
66189;SDS011;52992;52.084;5.412;2022-08-14T14:33:07;5.22;;;4.82;;
66189;SDS011;52992;52.084;5.412;2022-08-14T14:35:56;4.65;;;4.25;;
66189;SDS011;52992;52.084;5.412;2022-08-14T14:38:26;5.30;;;4.80;;
66189;SDS011;52992;52.084;5.412;2022-08-14T14:40:58;5.45;;;4.95;;
66189;SDS011;52992;52.084;5.412;2022-08-14T14:43:30;4.97;;;4.57;;
66189;SDS011;52992;52.084;5.412;2022-08-14T14:46:04;5.68;;;4.90;;
66189;SDS011;52992;52.084;5.412;2022-08-14T14:48:36;5.10;;;4.60;;
66189;SDS011;52992;52.084;5.412;2022-08-14T14:51:19;4.90;;;4.50;;
66189;SDS011;52992;52.084;5.412;2022-08-14T14:53:47;5.43;;;5.03;;
66189;SDS011;52992;52.084;5.412;2022-08-14T14:56:14;5.00;;;4.50;;
66189;SDS011;52992;52.084;5.412;2022-08-14T14:59:01;6.10;;;4.65;;
66189;SDS011;52992;52.084;5.412;2022-08-14T15:01:29;5.03;;;4.38;;
66189;SDS011;52992;52.084;5.412;2022-08-14T15:04:04;5.28;;;4.80;;
66189;SDS011;52992;52.084;5.412;2022-08-14T15:06:46;5.32;;;4.45;;
66189;SDS011;52992;52.084;5.412;2022-08-14T15:09:13;4.75;;;4.35;;
66189;SDS011;52992;52.084;5.412;2022-08-14T15:11:43;5.43;;;4.95;;
66189;SDS011;52992;52.084;5.412;2022-08-14T15:14:12;5.00;;;4.53;;
66189;SDS011;52992;52.084;5.412;2022-08-14T15:17:00;4.72;;;4.30;;
66189;SDS011;52992;52.084;5.412;2022-08-14T15:19:27;4.97;;;4.57;;
66189;SDS011;52992;52.084;5.412;2022-08-14T15:21:54;5.60;;;4.80;;
66189;SDS011;52992;52.084;5.412;2022-08-14T15:24:22;5.70;;;5.20;;
66189;SDS011;52992;52.084;5.412;2022-08-14T15:26:52;7.45;;;5.35;;
66189;SDS011;52992;52.084;5.412;2022-08-14T15:29:21;5.28;;;4.82;;
66189;SDS011;52992;52.084;5.412;2022-08-14T15:31:50;6.57;;;5.22;;
66189;SDS011;52992;52.084;5.412;2022-08-14T15:34:19;5.85;;;5.30;;
66189;SDS011;52992;52.084;5.412;2022-08-14T15:37:07;29.92;;;10.90;;
66189;SDS011;52992;52.084;5.412;2022-08-14T15:39:38;6.30;;;5.72;;
66189;SDS011;52992;52.084;5.412;2022-08-14T15:42:07;6.00;;;5.40;;
66189;SDS011;52992;52.084;5.412;2022-08-14T15:44:41;5.38;;;4.88;;
66189;SDS011;52992;52.084;5.412;2022-08-14T15:47:23;6.30;;;4.45;;